Time;durP1;ratioP1;P1;durP2;ratioP2;P2;SDS_P1;SDS_P2;PMS_P1;PMS_P2;Temp;Humidity;BMP_temperature;BMP_pressure;BME280_temperature;BME280_humidity;BME280_pressure;Samples;Min_cycle;Max_cycle;Signal;HPM_P1;HPM_P2
2022/02/14 00:00:26;;;;;;;32.47;8.90;;;9.60;95.20;;;;;;5034467;28;20128;-71
2022/02/14 00:02:51;;;;;;;25.20;8.27;;;9.60;99.90;;;;;;5034291;28;20495;-71
2022/02/14 00:05:17;;;;;;;36.28;8.63;;;9.50;99.90;;;;;;5034167;28;20033;-71
2022/02/14 00:07:43;;;;;;;37.00;8.57;;;9.50;99.90;;;;;;5033892;28;20487;-71
2022/02/14 00:10:09;;;;;;;30.83;9.95;;;9.50;99.90;;;;;;5033934;28;20451;-71
2022/02/14 00:12:39;;;;;;;49.75;18.75;;;9.50;99.90;;;;;;5034171;28;20506;-71
2022/02/14 00:15:06;;;;;;;30.73;12.20;;;9.40;99.90;;;;;;5034092;28;20065;-71
2022/02/14 00:17:32;;;;;;;43.20;10.38;;;9.50;99.90;;;;;;5036737;28;20034;-71
2022/02/14 00:19:58;;;;;;;33.20;9.88;;;9.50;99.90;;;;;;5037906;28;20459;-71
2022/02/14 00:22:24;;;;;;;38.60;8.98;;;9.50;99.90;;;;;;5037485;28;20056;-71
2022/02/14 00:24:51;;;;;;;34.33;8.65;;;9.50;99.90;;;;;;5037540;28;20036;-71
2022/02/14 00:27:20;;;;;;;33.88;9.32;;;9.50;99.90;;;;;;5037370;28;20041;-71
2022/02/14 00:29:46;;;;;;;27.38;8.40;;;9.50;99.90;;;;;;5019663;28;20037;-71
2022/02/14 00:32:12;;;;;;;28.73;9.38;;;9.50;99.90;;;;;;5037732;28;20111;-71
2022/02/14 00:34:38;;;;;;;31.45;9.50;;;9.50;99.90;;;;;;5037658;28;20037;-71
2022/02/14 00:37:04;;;;;;;29.20;8.27;;;9.40;99.90;;;;;;5037369;28;20040;-71
2022/02/14 00:39:30;;;;;;;29.00;8.73;;;9.40;99.90;;;;;;5037247;28;20037;-71
2022/02/14 00:41:56;;;;;;;34.55;8.70;;;9.40;99.90;;;;;;5037368;28;20068;-71
2022/02/14 00:44:22;;;;;;;40.42;9.68;;;9.40;99.90;;;;;;5037219;28;20091;-71
2022/02/14 00:46:48;;;;;;;34.15;8.70;;;9.50;99.90;;;;;;5037188;28;20132;-71
2022/02/14 00:49:14;;;;;;;31.77;8.85;;;9.50;99.90;;;;;;5037082;28;20091;-71
2022/02/14 00:51:40;;;;;;;36.95;13.57;;;9.50;99.90;;;;;;5037340;28;20073;-71
2022/02/14 00:54:05;;;;;;;41.05;9.95;;;9.50;99.90;;;;;;5037106;28;20148;-71
2022/02/14 00:56:31;;;;;;;29.10;9.45;;;9.50;99.90;;;;;;5037021;28;20037;-71
2022/02/14 00:58:57;;;;;;;33.40;9.18;;;9.50;99.90;;;;;;5036360;28;20033;-71
2022/02/14 01:01:23;;;;;;;28.75;8.73;;;9.40;99.90;;;;;;5037188;28;20052;-71
2022/02/14 01:03:49;;;;;;;41.30;10.35;;;9.40;99.90;;;;;;5037018;28;20049;-71
2022/02/14 01:06:15;;;;;;;34.95;9.13;;;9.40;99.90;;;;;;5037381;28;20045;-71
2022/02/14 01:08:40;;;;;;;32.60;9.70;;;9.50;99.90;;;;;;5036740;28;20345;-71
2022/02/14 01:11:07;;;;;;;34.40;9.43;;;9.50;99.90;;;;;;5036415;28;20041;-71
2022/02/14 01:13:34;;;;;;;29.10;9.55;;;9.50;99.90;;;;;;5035940;28;20053;-71
2022/02/14 01:15:59;;;;;;;30.67;9.30;;;9.50;99.90;;;;;;5036356;28;20523;-71
2022/02/14 01:18:25;;;;;;;30.38;9.95;;;9.50;99.90;;;;;;5036298;28;20037;-71
2022/02/14 01:20:51;;;;;;;31.60;8.98;;;9.50;99.90;;;;;;5035907;28;20142;-71
2022/02/14 01:23:17;;;;;;;32.58;10.25;;;9.50;99.90;;;;;;5035868;28;20484;-71
2022/02/14 01:25:43;;;;;;;30.25;9.68;;;9.50;99.90;;;;;;5018130;28;20120;-71
2022/02/14 01:28:09;;;;;;;31.52;9.93;;;9.50;99.90;;;;;;5034701;28;20389;-71
2022/02/14 01:30:34;;;;;;;34.25;9.65;;;9.40;99.90;;;;;;5036315;28;20053;-71
2022/02/14 01:33:01;;;;;;;42.50;10.90;;;9.50;99.90;;;;;;5036160;28;20119;-71
2022/02/14 01:35:28;;;;;;;38.25;11.85;;;9.40;99.90;;;;;;5036067;28;20059;-71
2022/02/14 01:37:54;;;;;;;30.90;10.18;;;9.40;99.90;;;;;;5036048;28;20087;-71
2022/02/14 01:40:20;;;;;;;39.95;10.10;;;9.30;99.90;;;;;;5036038;28;20041;-71
2022/02/14 01:42:46;;;;;;;34.45;9.55;;;9.30;99.90;;;;;;5036048;28;20041;-71
2022/02/14 01:45:12;;;;;;;36.85;10.15;;;9.40;99.90;;;;;;5036076;28;20033;-71
2022/02/14 01:47:40;;;;;;;47.05;10.90;;;9.40;99.90;;;;;;5036103;28;20042;-71
2022/02/14 01:50:07;;;;;;;31.77;9.52;;;9.40;99.90;;;;;;5035336;28;20498;-71
2022/02/14 01:52:35;;;;;;;27.52;9.02;;;9.40;99.90;;;;;;5035909;28;20046;-71
2022/02/14 01:55:03;;;;;;;32.33;9.05;;;9.40;99.90;;;;;;5035317;28;20033;-71
2022/02/14 01:57:29;;;;;;;31.75;10.45;;;9.40;99.90;;;;;;5035094;28;20064;-71
2022/02/14 01:59:57;;;;;;;30.42;9.13;;;9.50;99.90;;;;;;5035162;28;20042;-71
2022/02/14 02:02:24;;;;;;;35.38;10.05;;;9.40;99.90;;;;;;5035610;28;20366;-71
2022/02/14 02:04:50;;;;;;;33.58;10.35;;;9.50;99.90;;;;;;5035148;28;20119;-71
2022/02/14 02:07:15;;;;;;;38.88;9.55;;;9.50;99.90;;;;;;5035372;28;20096;-71
2022/02/14 02:09:43;;;;;;;32.53;9.20;;;9.50;99.90;;;;;;5035307;28;20045;-71
2022/02/14 02:12:22;;;;;;;47.92;11.90;;;9.40;99.90;;;;;;5035040;28;20045;-71
2022/02/14 02:14:48;;;;;;;27.52;8.65;;;9.40;99.90;;;;;;5035734;28;20065;-71
2022/02/14 02:17:14;;;;;;;39.72;13.60;;;9.30;99.90;;;;;;5035424;28;20126;-71
2022/02/14 02:19:40;;;;;;;33.80;10.32;;;9.30;99.90;;;;;;5035341;28;20080;-71
2022/02/14 02:22:06;;;;;;;33.17;10.50;;;9.40;99.90;;;;;;5035687;28;20395;-71
2022/02/14 02:24:48;;;;;;;32.70;9.48;;;9.40;99.90;;;;;;5035370;28;20091;-71
2022/02/14 02:27:14;;;;;;;30.90;9.75;;;9.40;99.90;;;;;;5035014;28;20523;-71
2022/02/14 02:29:40;;;;;;;23.65;8.98;;;9.30;99.90;;;;;;5035283;28;20544;-71
2022/02/14 02:32:08;;;;;;;34.72;9.75;;;8.60;99.90;;;;;;5034893;28;20118;-71
2022/02/14 02:34:38;;;;;;;36.55;10.23;;;9.40;99.90;;;;;;5035455;28;20041;-71
2022/02/14 02:37:06;;;;;;;31.77;8.98;;;9.40;99.90;;;;;;5034855;28;20385;-71
2022/02/14 02:39:32;;;;;;;37.13;9.77;;;9.30;99.90;;;;;;5034368;28;20566;-71
2022/02/14 02:41:58;;;;;;;47.42;18.95;;;9.40;99.90;;;;;;5034886;28;20076;-71
2022/02/14 02:44:25;;;;;;;71.82;33.70;;;9.50;99.90;;;;;;5035052;28;20132;-71
2022/02/14 02:46:51;;;;;;;65.07;26.65;;;9.40;99.90;;;;;;5035032;28;20045;-71
2022/02/14 02:49:22;;;;;;;45.10;16.90;;;9.40;99.90;;;;;;5035022;28;20041;-71
2022/02/14 02:51:50;;;;;;;44.60;14.57;;;9.40;99.90;;;;;;5034852;28;20044;-71
2022/02/14 02:54:17;;;;;;;38.28;9.73;;;9.40;99.90;;;;;;5034969;28;20034;-71
2022/02/14 02:56:45;;;;;;;36.33;10.30;;;9.30;99.90;;;;;;5034705;28;20650;-71
2022/02/14 02:59:11;;;;;;;33.35;8.88;;;9.30;99.90;;;;;;5034524;28;20121;-71
2022/02/14 03:01:38;;;;;;;35.33;9.40;;;9.30;99.90;;;;;;5034536;28;20132;-71
2022/02/14 03:04:06;;;;;;;28.88;9.02;;;9.40;99.90;;;;;;5034945;28;20045;-71
2022/02/14 03:06:32;;;;;;;33.75;9.43;;;9.40;99.90;;;;;;5034810;28;20098;-71
2022/02/14 03:08:58;;;;;;;43.08;10.10;;;9.40;99.90;;;;;;5034723;28;20132;-71
2022/02/14 03:11:25;;;;;;;32.47;9.00;;;9.30;99.90;;;;;;5035004;28;20048;-71
2022/02/14 03:13:52;;;;;;;26.75;8.68;;;9.30;99.90;;;;;;5034491;28;20404;-71
2022/02/14 03:16:19;;;;;;;27.65;8.70;;;9.30;99.90;;;;;;5034382;28;20040;-71
2022/02/14 03:18:45;;;;;;;33.70;8.75;;;9.20;99.90;;;;;;5034224;28;20034;-71
2022/02/14 03:21:12;;;;;;;31.38;8.63;;;9.20;99.90;;;;;;5034316;28;20049;-71
2022/02/14 03:23:38;;;;;;;37.55;10.48;;;9.20;99.90;;;;;;5034244;28;20037;-71
2022/02/14 03:26:04;;;;;;;39.17;10.80;;;9.20;99.90;;;;;;5034263;28;20511;-71
2022/02/14 03:28:31;;;;;;;29.15;10.05;;;9.70;99.90;;;;;;5033869;28;20118;-71
2022/02/14 03:30:59;;;;;;;30.40;9.85;;;9.10;99.90;;;;;;5034252;28;20507;-71
2022/02/14 03:33:26;;;;;;;34.55;9.95;;;9.10;99.90;;;;;;5034388;28;20500;-71
2022/02/14 03:35:53;;;;;;;31.27;9.05;;;9.10;99.90;;;;;;5034461;28;20044;-71
2022/02/14 03:38:19;;;;;;;30.60;9.20;;;9.00;99.90;;;;;;5034291;28;20128;-71
2022/02/14 03:40:46;;;;;;;27.73;8.55;;;9.00;99.90;;;;;;5033674;28;20057;-71
2022/02/14 03:43:12;;;;;;;27.90;8.90;;;9.00;99.90;;;;;;5033692;28;20064;-71
2022/02/14 03:45:40;;;;;;;40.22;11.32;;;9.00;99.90;;;;;;5034604;28;20117;-71
2022/02/14 03:48:06;;;;;;;30.27;10.00;;;8.90;99.90;;;;;;5034086;28;20037;-71
2022/02/14 03:50:32;;;;;;;40.10;10.55;;;9.90;99.90;;;;;;5033810;28;20045;-71
2022/02/14 03:52:59;;;;;;;41.00;11.13;;;8.90;99.90;;;;;;5037482;28;20121;-71
2022/02/14 03:55:25;;;;;;;30.75;10.88;;;9.00;99.90;;;;;;5037605;28;20033;-71
2022/02/14 03:57:51;;;;;;;39.88;10.50;;;8.90;99.90;;;;;;5037371;28;20091;-71
2022/02/14 04:00:19;;;;;;;32.65;11.40;;;9.00;99.90;;;;;;5037982;28;20051;-71
2022/02/14 04:02:46;;;;;;;28.38;9.48;;;8.80;99.90;;;;;;5037873;28;20033;-71
2022/02/14 04:05:13;;;;;;;27.75;10.02;;;8.80;99.90;;;;;;5037973;28;20045;-71
2022/02/14 04:07:40;;;;;;;38.20;15.57;;;8.80;99.90;;;;;;5037370;28;20072;-71
2022/02/14 04:10:08;;;;;;;34.85;11.85;;;8.80;99.90;;;;;;5037440;28;20053;-71
2022/02/14 04:12:34;;;;;;;37.40;12.30;;;8.80;99.90;;;;;;5037348;28;20138;-71
2022/02/14 04:15:00;;;;;;;42.88;14.18;;;8.80;99.90;;;;;;5037555;28;20056;-71
2022/02/14 04:17:26;;;;;;;29.23;11.80;;;8.70;99.90;;;;;;5037163;28;20041;-71
2022/02/14 04:19:53;;;;;;;30.63;13.57;;;8.80;99.90;;;;;;5037078;28;20508;-71
2022/02/14 04:22:19;;;;;;;37.90;13.43;;;8.70;99.90;;;;;;5037731;28;20048;-71
2022/02/14 04:24:46;;;;;;;27.42;13.60;;;8.80;99.90;;;;;;5037342;28;20062;-71
2022/02/14 04:27:13;;;;;;;39.63;13.55;;;8.70;99.90;;;;;;5037127;28;20103;-71
2022/02/14 04:29:39;;;;;;;32.60;12.68;;;8.70;99.90;;;;;;5037774;28;20037;-71
2022/02/14 04:32:06;;;;;;;35.50;12.68;;;8.70;99.90;;;;;;5037473;28;20049;-71
2022/02/14 04:34:32;;;;;;;29.17;12.10;;;8.70;99.90;;;;;;5036797;28;20045;-71
2022/02/14 04:36:58;;;;;;;33.55;12.23;;;8.70;99.90;;;;;;5037342;28;20045;-71
2022/02/14 04:39:24;;;;;;;27.25;12.25;;;8.70;99.90;;;;;;5036950;28;20049;-71
2022/02/14 04:41:49;;;;;;;32.45;12.65;;;8.70;99.90;;;;;;5036866;28;20041;-71
2022/02/14 04:44:15;;;;;;;34.67;13.77;;;8.60;99.90;;;;;;5036725;28;20040;-71
2022/02/14 04:46:41;;;;;;;36.90;12.48;;;8.60;99.90;;;;;;5036952;28;20044;-71
2022/02/14 04:49:07;;;;;;;35.13;14.95;;;8.60;99.90;;;;;;5036896;28;20175;-71
2022/02/14 04:51:34;;;;;;;29.27;14.63;;;8.60;99.90;;;;;;5036486;28;20033;-71
2022/02/14 04:54:03;;;;;;;35.20;13.98;;;8.60;99.90;;;;;;5036933;28;20041;-71
2022/02/14 04:56:30;;;;;;;31.50;14.98;;;8.70;99.90;;;;;;5036497;28;20041;-71
2022/02/14 04:58:56;;;;;;;33.78;14.98;;;8.60;99.90;;;;;;5036298;28;20038;-71
2022/02/14 05:01:23;;;;;;;30.08;15.15;;;8.80;99.90;;;;;;5036614;28;20045;-71
2022/02/14 05:03:49;;;;;;;28.50;12.88;;;8.80;99.90;;;;;;5036262;28;20033;-72
2022/02/14 05:06:15;;;;;;;39.40;14.10;;;8.80;99.90;;;;;;5036328;28;20079;-70
2022/02/14 05:08:41;;;;;;;27.30;11.45;;;8.90;99.90;;;;;;5036545;28;20495;-71
2022/02/14 05:11:07;;;;;;;28.15;11.32;;;8.80;99.90;;;;;;5036400;28;20044;-71
2022/02/14 05:13:33;;;;;;;26.85;10.30;;;8.80;99.90;;;;;;5045035;28;20048;-71
2022/02/14 05:15:59;;;;;;;23.58;10.65;;;8.80;99.90;;;;;;5056295;28;20037;-71
2022/02/14 05:18:25;;;;;;;21.02;8.95;;;8.80;99.90;;;;;;5055881;28;20087;-71
2022/02/14 05:20:51;;;;;;;18.05;8.20;;;8.80;99.90;;;;;;5055995;28;20048;-71
2022/02/14 05:23:17;;;;;;;19.58;7.93;;;8.70;99.90;;;;;;5056217;28;20495;-71
2022/02/14 05:25:43;;;;;;;14.30;6.95;;;8.80;99.90;;;;;;5055799;28;20041;-71
2022/02/14 05:28:10;;;;;;;19.08;7.47;;;8.80;99.90;;;;;;5055895;28;20037;-72
2022/02/14 05:30:36;;;;;;;12.80;5.95;;;8.70;99.90;;;;;;5056057;28;20098;-71
2022/02/14 05:33:03;;;;;;;14.40;6.35;;;8.70;99.90;;;;;;5056177;28;20032;-73
2022/02/14 05:35:29;;;;;;;11.82;5.93;;;8.70;99.90;;;;;;5055964;28;20048;-72
2022/02/14 05:37:55;;;;;;;14.85;6.32;;;8.70;99.90;;;;;;5055879;28;20028;-69
2022/02/14 05:40:21;;;;;;;15.30;5.97;;;8.70;99.90;;;;;;5055481;28;20044;-70
2022/02/14 05:42:47;;;;;;;10.90;5.65;;;8.70;99.90;;;;;;5055716;28;20067;-70
2022/02/14 05:45:13;;;;;;;7.57;5.47;;;8.70;99.90;;;;;;5056320;28;20069;-70
2022/02/14 05:47:39;;;;;;;11.00;5.40;;;8.70;99.90;;;;;;5040862;28;20091;-73
2022/02/14 05:50:07;;;;;;;10.93;5.55;;;8.70;99.90;;;;;;5035625;28;20037;-74
2022/02/14 05:52:33;;;;;;;11.05;5.00;;;8.70;99.90;;;;;;5035020;28;20045;-73
2022/02/14 05:54:59;;;;;;;8.90;5.18;;;9.10;99.90;;;;;;5035455;28;20041;-74
2022/02/14 05:57:25;;;;;;;7.68;5.05;;;8.70;99.90;;;;;;5035167;28;20037;-74
2022/02/14 05:59:51;;;;;;;9.27;4.70;;;8.70;99.90;;;;;;5035245;28;20049;-74
2022/02/14 06:02:17;;;;;;;10.18;5.93;;;8.70;99.90;;;;;;5035804;28;20037;-73
2022/02/14 06:04:43;;;;;;;13.85;9.02;;;8.70;99.90;;;;;;5035759;28;20128;-74
2022/02/14 06:07:09;;;;;;;11.95;6.43;;;8.70;99.90;;;;;;5035880;28;20048;-74
2022/02/14 06:09:35;;;;;;;12.77;7.72;;;8.70;99.90;;;;;;5035354;28;20045;-73
2022/02/14 06:12:01;;;;;;;8.43;6.18;;;8.70;99.90;;;;;;5034809;28;20033;-74
2022/02/14 06:14:28;;;;;;;8.35;5.55;;;8.80;99.90;;;;;;4995027;28;20127;-74
2022/02/14 06:16:53;;;;;;;6.05;3.13;;;8.80;99.90;;;;;;4995620;28;20053;-73
2022/02/14 06:19:21;;;;;;;8.35;4.55;;;8.70;99.90;;;;;;4995450;28;20401;-73
2022/02/14 06:21:47;;;;;;;3.78;2.78;;;8.70;99.90;;;;;;4995366;28;20030;-74
2022/02/14 06:24:13;;;;;;;3.42;2.55;;;8.70;99.90;;;;;;4995831;28;20034;-73
2022/02/14 06:26:39;;;;;;;4.00;2.55;;;8.70;99.90;;;;;;4995693;28;20038;-73
2022/02/14 06:29:05;;;;;;;5.18;2.78;;;8.60;99.90;;;;;;4995521;28;20100;-74
2022/02/14 06:31:31;;;;;;;4.60;3.17;;;8.60;99.90;;;;;;4995388;28;20048;-74
2022/02/14 06:33:58;;;;;;;6.07;2.78;;;8.60;99.90;;;;;;4995741;28;20046;-74
2022/02/14 06:36:27;;;;;;;2.30;2.08;;;8.60;99.90;;;;;;4995311;28;20099;-73
2022/02/14 06:38:57;;;;;;;2.75;1.85;;;8.60;99.90;;;;;;4995443;28;20393;-74
2022/02/14 06:41:24;;;;;;;4.43;1.90;;;8.70;99.90;;;;;;4995279;28;20038;-74
2022/02/14 06:43:53;;;;;;;2.05;1.45;;;8.60;99.90;;;;;;4995184;28;20034;-73
2022/02/14 06:46:20;;;;;;;2.60;1.98;;;8.50;99.90;;;;;;4995216;28;20125;-74
2022/02/14 06:48:47;;;;;;;2.15;1.20;;;8.60;99.90;;;;;;4995296;28;20121;-74
2022/02/14 06:51:13;;;;;;;2.80;1.20;;;8.50;99.90;;;;;;4995380;28;20038;-74
2022/02/14 06:53:39;;;;;;;3.50;1.70;;;8.50;98.10;;;;;;4995466;28;20073;-73
2022/02/14 06:56:06;;;;;;;1.08;0.90;;;8.50;99.90;;;;;;4995011;28;20505;-74
2022/02/14 06:58:39;;;;;;;3.58;2.05;;;8.40;99.90;;;;;;4995064;28;20049;-73
2022/02/14 07:01:07;;;;;;;1.27;1.17;;;8.40;99.20;;;;;;4995224;28;20054;-74
2022/02/14 07:03:34;;;;;;;1.70;0.80;;;8.30;99.90;;;;;;4995104;28;20034;-73
2022/02/14 07:06:00;;;;;;;4.28;1.25;;;8.30;60.70;;;;;;4994167;28;20058;-74
2022/02/14 07:08:26;;;;;;;1.70;0.95;;;8.30;92.40;;;;;;4994039;28;20065;-73
2022/02/14 07:10:52;;;;;;;2.97;1.40;;;8.30;42.30;;;;;;4993062;28;20493;-73
2022/02/14 07:13:18;;;;;;;1.95;1.42;;;8.30;80.50;;;;;;5013799;28;20057;-73
2022/02/14 07:15:44;;;;;;;2.33;1.52;;;8.20;52.10;;;;;;5033402;28;20041;-73
2022/02/14 07:18:13;;;;;;;2.00;1.60;;;8.20;99.90;;;;;;5033594;28;20037;-73
2022/02/14 07:20:40;;;;;;;1.65;1.00;;;8.20;33.00;;;;;;5032803;28;20069;-73
2022/02/14 07:23:06;;;;;;;1.95;1.00;;;8.20;27.70;;;;;;5034361;28;20091;-73
2022/02/14 07:25:32;;;;;;;2.42;0.98;;;8.30;13.40;;;;;;5035624;28;20061;-73
2022/02/14 07:27:59;;;;;;;3.00;0.85;;;8.30;24.30;;;;;;5037818;28;20431;-73
2022/02/14 07:30:24;;;;;;;0.57;0.50;;;8.40;25.80;;;;;;5038093;28;20052;-73
2022/02/14 07:32:51;;;;;;;1.13;0.73;;;8.40;22.00;;;;;;5037899;28;20041;-73
2022/02/14 07:35:18;;;;;;;1.83;0.75;;;8.40;38.20;;;;;;5038283;28;20029;-73
2022/02/14 07:37:44;;;;;;;0.98;0.75;;;8.40;1.20;;;;;;5038124;28;20037;-73
2022/02/14 07:40:12;;;;;;;0.80;0.70;;;8.40;1.00;;;;;;5038204;28;20045;-74
2022/02/14 07:42:38;;;;;;;1.30;0.70;;;8.40;13.10;;;;;;5049662;28;20066;-73
2022/02/14 07:45:06;;;;;;;0.90;0.60;;;8.40;3.50;;;;;;5057546;28;20075;-73
2022/02/14 07:47:32;;;;;;;1.48;0.82;;;8.80;24.80;;;;;;5056995;28;20043;-73
2022/02/14 07:49:58;;;;;;;1.13;0.60;;;8.40;1.00;;;;;;5057813;28;20037;-73
2022/02/14 07:52:24;;;;;;;0.35;0.30;;;8.30;1.00;;;;;;5057578;28;20045;-73
2022/02/14 07:54:51;;;;;;;0.68;0.43;;;8.40;1.00;;;;;;5057108;28;20041;-73
2022/02/14 07:57:17;;;;;;;0.80;0.65;;;8.20;1.00;;;;;;5056977;28;20037;-73
2022/02/14 07:59:44;;;;;;;0.70;0.70;;;8.20;1.00;;;;;;5057624;28;20037;-73
2022/02/14 08:02:10;;;;;;;1.70;0.75;;;8.20;1.00;;;;;;5057312;28;20067;-73
2022/02/14 08:04:36;;;;;;;0.57;0.40;;;8.20;1.00;;;;;;5056789;28;20037;-73
2022/02/14 08:07:04;;;;;;;2.38;0.90;;;8.30;1.00;;;;;;5057191;28;20065;-74
2022/02/14 08:09:31;;;;;;;1.17;0.63;;;8.30;1.00;;;;;;5057305;28;20037;-73
2022/02/14 08:11:57;;;;;;;0.30;0.30;;;8.30;1.00;;;;;;5056101;28;20118;-73
2022/02/14 08:14:23;;;;;;;1.10;0.80;;;8.40;1.00;;;;;;5057878;28;20041;-73
2022/02/14 08:16:49;;;;;;;0.75;0.60;;;8.40;1.00;;;;;;5057645;28;20044;-73
2022/02/14 08:19:14;;;;;;;2.05;0.65;;;8.40;1.00;;;;;;5051705;28;20036;-72
2022/02/14 08:21:40;;;;;;;0.75;0.40;;;8.30;1.00;;;;;;5052760;28;20041;-73
2022/02/14 08:24:06;;;;;;;0.52;0.40;;;8.20;1.00;;;;;;5057388;28;20076;-73
2022/02/14 08:26:33;;;;;;;1.23;0.30;;;8.30;1.00;;;;;;5056916;28;20071;-73
2022/02/14 08:29:01;;;;;;;0.20;0.20;;;8.30;1.00;;;;;;5057331;28;20024;-73
2022/02/14 08:31:28;;;;;;;0.10;0.10;;;8.30;1.00;;;;;;5056933;28;20171;-73
2022/02/14 08:33:57;;;;;;;0.20;0.20;;;8.30;1.00;;;;;;5056395;28;20036;-72
2022/02/14 08:36:27;;;;;;;0.35;0.20;;;8.30;1.00;;;;;;5056341;28;20037;-73
2022/02/14 08:38:53;;;;;;;0.22;0.22;;;8.30;1.00;;;;;;5056623;28;20503;-73
2022/02/14 08:41:20;;;;;;;0.40;0.20;;;8.40;1.00;;;;;;5056493;28;20055;-73
2022/02/14 08:43:48;;;;;;;0.20;0.20;;;8.40;1.00;;;;;;5056814;28;20029;-73
2022/02/14 08:46:21;;;;;;;0.30;0.10;;;8.60;1.00;;;;;;5057136;28;20068;-73
2022/02/14 08:48:51;;;;;;;0.10;0.10;;;8.60;1.00;;;;;;5055426;28;20047;-72
2022/02/14 08:51:18;;;;;;;0.40;0.40;;;8.60;1.00;;;;;;5054491;28;20079;-73
2022/02/14 08:53:45;;;;;;;0.55;0.20;;;8.50;1.00;;;;;;5055266;28;20040;-73
2022/02/14 08:56:11;;;;;;;0.20;0.20;;;8.70;1.00;;;;;;5056460;28;20086;-72
2022/02/14 08:58:39;;;;;;;0.63;0.45;;;8.70;1.00;;;;;;5056553;28;20036;-71
2022/02/14 09:01:05;;;;;;;0.40;0.38;;;8.80;1.00;;;;;;5056562;28;20053;-72
2022/02/14 09:03:32;;;;;;;0.30;0.30;;;8.90;1.00;;;;;;5056787;28;20567;-72
2022/02/14 09:05:58;;;;;;;0.88;0.30;;;8.90;1.00;;;;;;5039733;28;20337;-72
2022/02/14 09:08:27;;;;;;;0.40;0.30;;;8.80;1.00;;;;;;5034820;28;20515;-72
2022/02/14 09:10:55;;;;;;;0.20;0.20;;;8.90;1.00;;;;;;5036471;28;20076;-71
2022/02/14 09:13:21;;;;;;;0.20;0.20;;;9.10;1.00;;;;;;5036416;28;20057;-71
2022/02/14 09:15:47;;;;;;;0.98;0.40;;;9.00;1.00;;;;;;5036298;28;20042;-71
2022/02/14 09:18:15;;;;;;;0.68;0.30;;;9.00;1.00;;;;;;5036200;28;20038;-71
2022/02/14 09:20:41;;;;;;;0.57;0.32;;;9.00;1.00;;;;;;5036298;28;20132;-71
2022/02/14 09:23:07;;;;;;;0.70;0.28;;;9.20;1.00;;;;;;5036471;28;20038;-71
2022/02/14 09:25:33;;;;;;;0.65;0.22;;;9.40;1.00;;;;;;5036407;28;20041;-70
2022/02/14 09:28:00;;;;;;;0.10;0.10;;;9.50;1.00;;;;;;5035570;28;20033;-71
2022/02/14 09:30:26;;;;;;;0.28;0.20;;;9.30;1.00;;;;;;5036040;28;20033;-71
2022/02/14 09:32:52;;;;;;;0.45;0.20;;;9.20;1.00;;;;;;5036299;28;20068;-71
2022/02/14 09:35:26;;;;;;;1.40;0.45;;;9.00;1.00;;;;;;5034382;28;20041;-71
2022/02/14 09:38:01;;;;;;;0.95;0.35;;;9.40;1.00;;;;;;5032997;28;20045;-71
2022/02/14 09:40:28;;;;;;;1.25;0.50;;;9.40;1.00;;;;;;5027651;28;20049;-71
2022/02/14 09:42:56;;;;;;;0.95;0.50;;;9.30;1.00;;;;;;5033281;28;20053;-71
2022/02/14 09:45:23;;;;;;;3.63;0.65;;;9.30;1.00;;;;;;5034117;28;20041;-72
2022/02/14 09:47:55;;;;;;;1.85;0.55;;;9.10;1.00;;;;;;5034025;28;20049;-71
2022/02/14 09:50:21;;;;;;;1.75;0.43;;;9.10;1.00;;;;;;5033077;28;20052;-72
2022/02/14 09:52:48;;;;;;;2.58;0.68;;;9.20;1.00;;;;;;5033467;28;20526;-71
2022/02/14 09:55:14;;;;;;;1.30;0.68;;;9.20;1.00;;;;;;5033882;28;20045;-72
2022/02/14 09:57:39;;;;;;;1.75;0.65;;;9.20;1.00;;;;;;5033603;28;20046;-71
2022/02/14 10:00:06;;;;;;;2.60;0.98;;;9.20;1.00;;;;;;5033770;28;20049;-71
2022/02/14 10:02:32;;;;;;;2.33;0.70;;;9.10;1.00;;;;;;5034405;28;20115;-71
2022/02/14 10:05:03;;;;;;;0.88;0.50;;;9.10;1.00;;;;;;5034410;28;20045;-71
2022/02/14 10:07:50;;;;;;;1.13;0.38;;;9.50;1.00;;;;;;5034798;28;20103;-71
2022/02/14 10:10:18;;;;;;;1.23;0.40;;;9.40;1.00;;;;;;5035211;28;20131;-72
2022/02/14 10:12:48;;;;;;;1.67;0.50;;;9.40;1.00;;;;;;5033679;28;20137;-71
2022/02/14 10:15:16;;;;;;;1.70;0.50;;;9.70;1.00;;;;;;5032982;28;20424;-71
2022/02/14 10:17:47;;;;;;;0.63;0.32;;;9.50;1.00;;;;;;5032921;28;20045;-71
2022/02/14 10:20:19;;;;;;;1.45;0.73;;;9.50;1.00;;;;;;5033032;28;20136;-71
2022/02/14 10:22:55;;;;;;;2.63;0.82;;;9.50;1.00;;;;;;5033381;28;20095;-71
2022/02/14 10:25:31;;;;;;;1.27;0.40;;;9.50;1.00;;;;;;5034758;28;20033;-71
2022/02/14 10:28:23;;;;;;;2.13;0.70;;;9.60;1.00;;;;;;5034546;28;20043;-71
2022/02/14 10:30:56;;;;;;;1.42;0.50;;;9.90;1.00;;;;;;5033789;28;20048;-71
2022/02/14 10:33:23;;;;;;;2.15;0.70;;;9.80;1.00;;;;;;5034881;28;20112;-70
2022/02/14 10:35:49;;;;;;;0.38;0.32;;;9.80;1.00;;;;;;5029353;28;20040;-71
2022/02/14 10:38:20;;;;;;;0.90;0.40;;;10.10;1.00;;;;;;5032070;28;20537;-71
2022/02/14 10:40:46;;;;;;;;;;;9.70;1.00;;;;;;5034056;28;20530;-71
2022/02/14 10:43:25;;;;;;;0.50;0.38;;;10.30;1.00;;;;;;5034043;28;19978;-71
2022/02/14 10:45:53;;;;;;;0.90;0.60;;;10.00;1.00;;;;;;5033960;28;20045;-70
2022/02/14 10:48:32;;;;;;;0.88;0.30;;;10.20;1.00;;;;;;5031229;28;20041;-70
2022/02/14 10:50:59;;;;;;;1.20;0.57;;;10.20;1.00;;;;;;5033065;28;20531;-71
2022/02/14 10:53:25;;;;;;;1.67;0.50;;;10.20;1.00;;;;;;5032192;28;20049;-71
2022/02/14 10:55:56;;;;;;;1.00;0.47;;;10.10;1.00;;;;;;5033767;28;20045;-70
2022/02/14 10:58:28;;;;;;;;;;;10.20;1.00;;;;;;5034191;28;20060;-71
2022/02/14 11:00:57;;;;;;;1.63;0.50;;;10.00;1.00;;;;;;5033780;28;19917;-71
2022/02/14 11:03:23;;;;;;;1.35;0.82;;;10.10;1.00;;;;;;5028892;28;20041;-71
2022/02/14 11:05:52;;;;;;;3.30;0.73;;;9.90;1.00;;;;;;5033682;28;20036;-70
2022/02/14 11:08:21;;;;;;;2.30;0.43;;;9.80;1.00;;;;;;5032422;28;20388;-69
2022/02/14 11:10:50;;;;;;;2.00;0.68;;;9.80;1.00;;;;;;5031461;28;20061;-71
2022/02/14 11:13:18;;;;;;;2.33;1.20;;;10.10;1.00;;;;;;5032028;28;20055;-72
2022/02/14 11:15:47;;;;;;;3.20;0.77;;;10.60;1.00;;;;;;5034579;28;20045;-70
2022/02/14 11:18:16;;;;;;;2.13;0.50;;;10.60;1.00;;;;;;5033289;28;20040;-71
2022/02/14 11:20:43;;;;;;;3.72;0.90;;;10.30;1.00;;;;;;5032541;28;20107;-71
2022/02/14 11:23:15;;;;;;;2.45;0.90;;;10.60;1.00;;;;;;5034020;28;20044;-71
2022/02/14 11:26:02;;;;;;;2.17;0.60;;;10.40;1.00;;;;;;5034387;28;20047;-71
2022/02/14 11:29:04;;;;;;;3.42;0.70;;;10.30;1.00;;;;;;5034348;28;20052;-71
2022/02/14 11:31:32;;;;;;;4.60;0.77;;;10.10;1.00;;;;;;5034623;28;20033;-71
2022/02/14 11:34:02;;;;;;;3.50;0.70;;;9.80;1.00;;;;;;5034326;28;20500;-71
2022/02/14 11:36:30;;;;;;;3.70;0.90;;;9.70;1.00;;;;;;5034891;28;20091;-71
2022/02/14 11:38:59;;;;;;;4.07;0.80;;;10.00;1.00;;;;;;5034505;28;20770;-71
2022/02/14 11:41:40;;;;;;;5.03;1.20;;;10.10;1.00;;;;;;5034379;28;20053;-71
2022/02/14 11:44:14;;;;;;;;;;;9.70;1.00;;;;;;5034473;28;20111;-71
2022/02/14 11:46:55;;;;;;;6.57;1.08;;;10.00;1.00;;;;;;5034684;28;19916;-71
2022/02/14 11:49:36;;;;;;;4.57;1.25;;;10.10;1.00;;;;;;5034419;28;20151;-71
2022/02/14 11:52:04;;;;;;;;;;;10.40;1.00;;;;;;5034495;28;20041;-71
2022/02/14 11:54:36;;;;;;;3.78;1.00;;;10.40;1.00;;;;;;5034197;28;19909;-71
2022/02/14 11:57:31;;;;;;;5.10;1.33;;;10.40;1.00;;;;;;5034211;28;20053;-71
2022/02/14 12:00:15;;;;;;;3.17;1.00;;;10.40;1.00;;;;;;5034579;28;20187;-71
2022/02/14 12:03:10;;;;;;;6.32;1.38;;;10.30;1.00;;;;;;5034547;28;20033;-71
2022/02/14 12:05:57;;;;;;;4.03;1.20;;;10.30;1.00;;;;;;5031211;28;20029;-71
2022/02/14 12:08:23;;;;;;;4.18;1.23;;;10.20;1.00;;;;;;5033874;28;20508;-71
2022/02/14 12:10:53;;;;;;;3.95;1.30;;;10.10;1.00;;;;;;5033911;28;20038;-71
2022/02/14 12:13:21;;;;;;;4.63;1.10;;;10.00;1.00;;;;;;5035894;28;20057;-71
2022/02/14 12:21:20;;;;;;;7.88;1.23;;;9.90;1.00;;;;;;5036703;28;20099;-71
2022/02/14 12:23:47;;;;;;;4.38;1.13;;;10.00;1.00;;;;;;5037540;28;20056;-71
2022/02/14 12:26:23;;;;;;;2.75;0.90;;;10.00;1.00;;;;;;5037292;28;20034;-71
2022/02/14 12:31:41;;;;;;;5.40;1.10;;;9.80;1.00;;;;;;5037095;28;20558;-71
2022/02/14 12:34:06;;;;;;;6.40;1.20;;;9.80;1.00;;;;;;5037011;28;20041;-71
2022/02/14 12:36:32;;;;;;;4.70;1.40;;;9.80;1.00;;;;;;5036171;28;20086;-71
2022/02/14 12:38:58;;;;;;;7.15;1.25;;;9.70;1.00;;;;;;5036820;28;20044;-71
2022/02/14 12:41:24;;;;;;;3.42;0.80;;;9.70;1.00;;;;;;5036727;28;20132;-71
2022/02/14 12:43:50;;;;;;;3.90;1.50;;;9.70;1.00;;;;;;5036986;28;20045;-71
2022/02/14 12:46:22;;;;;;;5.60;2.10;;;9.70;1.00;;;;;;5036996;28;20038;-71
2022/02/14 12:48:52;;;;;;;6.63;1.27;;;9.70;1.00;;;;;;5036548;28;20040;-71
2022/02/14 12:51:24;;;;;;;3.67;1.20;;;9.60;1.00;;;;;;5036963;28;20058;-71
2022/02/14 12:53:54;;;;;;;4.00;1.25;;;9.70;1.00;;;;;;5036938;28;20039;-71
2022/02/14 12:56:25;;;;;;;4.47;1.50;;;9.80;1.00;;;;;;5041839;28;20534;-71
2022/02/14 12:58:57;;;;;;;3.33;0.93;;;10.00;1.00;;;;;;5056110;28;20522;-70
2022/02/14 13:01:28;;;;;;;4.03;1.20;;;10.20;1.00;;;;;;5056095;28;20049;-72
2022/02/14 13:04:03;;;;;;;5.22;0.98;;;10.30;1.00;;;;;;5043762;28;20052;-71